sensor_id;sensor_type;location;lat;lon;timestamp;pressure;altitude;pressure_sealevel;temperature;humidity
42289;BME280;30230;47.520;19.016;2023-07-16T19:35:35;99008.34;;;26.86;87.99
42289;BME280;30230;47.520;19.016;2023-07-16T19:37:36;99006.50;;;26.82;88.43
42289;BME280;30230;47.520;19.016;2023-07-16T19:39:36;99008.59;;;26.76;90.13
42289;BME280;30230;47.520;19.016;2023-07-16T19:41:36;99023.25;;;26.68;89.05
42289;BME280;30230;47.520;19.016;2023-07-16T19:43:37;99014.38;;;26.57;88.51
42289;BME280;30230;47.520;19.016;2023-07-16T19:45:37;99018.19;;;26.47;89.32
42289;BME280;30230;47.520;19.016;2023-07-16T19:47:37;99016.97;;;26.40;88.92
42289;BME280;30230;47.520;19.016;2023-07-16T19:49:39;99020.88;;;26.39;91.66
42289;BME280;30230;47.520;19.016;2023-07-16T19:51:40;99024.13;;;26.41;90.67
42289;BME280;30230;47.520;19.016;2023-07-16T19:53:40;99022.00;;;26.38;89.05
42289;BME280;30230;47.520;19.016;2023-07-16T19:55:41;99014.31;;;26.35;89.05
42289;BME280;30230;47.520;19.016;2023-07-16T19:57:41;99017.19;;;26.30;92.56
42289;BME280;30230;47.520;19.016;2023-07-16T19:59:43;99019.81;;;26.26;91.74
42289;BME280;30230;47.520;19.016;2023-07-16T20:01:45;99014.75;;;26.28;90.17
42289;BME280;30230;47.520;19.016;2023-07-16T20:03:46;99027.66;;;26.33;88.54
42289;BME280;30230;47.520;19.016;2023-07-16T20:05:46;99021.00;;;26.34;88.78
42289;BME280;30230;47.520;19.016;2023-07-16T20:07:47;99024.09;;;26.32;88.95
42289;BME280;30230;47.520;19.016;2023-07-16T20:09:47;99019.84;;;26.35;87.91
42289;BME280;30230;47.520;19.016;2023-07-16T20:11:52;99017.72;;;26.32;84.26
42289;BME280;30230;47.520;19.016;2023-07-16T20:13:52;99022.63;;;26.35;84.42
42289;BME280;30230;47.520;19.016;2023-07-16T20:15:53;99024.63;;;26.20;85.87
42289;BME280;30230;47.520;19.016;2023-07-16T20:17:53;99020.34;;;26.14;85.92
42289;BME280;30230;47.520;19.016;2023-07-16T20:19:53;99018.69;;;26.13;86.16
42289;BME280;30230;47.520;19.016;2023-07-16T20:21:54;99020.97;;;26.11;87.50
42289;BME280;30230;47.520;19.016;2023-07-16T20:23:54;99018.50;;;26.10;88.35
42289;BME280;30230;47.520;19.016;2023-07-16T20:25:55;99014.75;;;26.06;89.84
42289;BME280;30230;47.520;19.016;2023-07-16T20:27:56;99018.66;;;25.91;88.41
42289;BME280;30230;47.520;19.016;2023-07-16T20:29:57;99010.97;;;25.88;88.85
42289;BME280;30230;47.520;19.016;2023-07-16T20:31:57;99016.13;;;25.81;89.13
42289;BME280;30230;47.520;19.016;2023-07-16T20:33:57;99022.91;;;25.75;89.16
42289;BME280;30230;47.520;19.016;2023-07-16T20:35:58;99006.31;;;25.75;89.47
42289;BME280;30230;47.520;19.016;2023-07-16T20:37:59;99013.53;;;25.70;89.27
42289;BME280;30230;47.520;19.016;2023-07-16T20:39:59;99009.66;;;25.71;89.92
42289;BME280;30230;47.520;19.016;2023-07-16T20:42:00;99005.56;;;25.69;90.32
42289;BME280;30230;47.520;19.016;2023-07-16T20:44:01;99013.88;;;25.69;90.90
42289;BME280;30230;47.520;19.016;2023-07-16T20:46:01;99011.09;;;25.69;90.51
42289;BME280;30230;47.520;19.016;2023-07-16T20:48:01;99014.69;;;25.69;89.59
42289;BME280;30230;47.520;19.016;2023-07-16T20:50:03;99009.31;;;25.73;89.50
42289;BME280;30230;47.520;19.016;2023-07-16T20:52:03;99001.16;;;25.82;87.13
42289;BME280;30230;47.520;19.016;2023-07-16T20:54:04;99011.09;;;25.83;85.88
42289;BME280;30230;47.520;19.016;2023-07-16T20:56:08;99005.56;;;25.83;85.67
42289;BME280;30230;47.520;19.016;2023-07-16T20:58:09;99010.06;;;25.79;85.15
42289;BME280;30230;47.520;19.016;2023-07-16T21:00:11;99007.69;;;25.72;85.30
42289;BME280;30230;47.520;19.016;2023-07-16T21:02:16;99010.06;;;25.79;85.55
42289;BME280;30230;47.520;19.016;2023-07-16T21:04:17;99013.84;;;25.83;84.82
42289;BME280;30230;47.520;19.016;2023-07-16T21:06:18;99007.97;;;25.98;82.35
42289;BME280;30230;47.520;19.016;2023-07-16T21:08:18;99008.72;;;25.90;83.15
42289;BME280;30230;47.520;19.016;2023-07-16T21:10:19;99007.72;;;25.86;83.18
42289;BME280;30230;47.520;19.016;2023-07-16T21:12:25;99006.56;;;25.87;81.65
42289;BME280;30230;47.520;19.016;2023-07-16T21:14:25;99009.56;;;25.77;82.36
42289;BME280;30230;47.520;19.016;2023-07-16T21:16:26;99006.78;;;25.77;83.37
42289;BME280;30230;47.520;19.016;2023-07-16T21:18:26;99007.50;;;25.82;82.88
42289;BME280;30230;47.520;19.016;2023-07-16T21:20:27;98991.53;;;25.65;82.54
42289;BME280;30230;47.520;19.016;2023-07-16T21:22:31;99004.84;;;25.77;83.03
42289;BME280;30230;47.520;19.016;2023-07-16T21:24:31;99002.56;;;25.79;82.59
42289;BME280;30230;47.520;19.016;2023-07-16T21:26:31;99006.47;;;25.78;82.04
42289;BME280;30230;47.520;19.016;2023-07-16T21:28:32;99015.59;;;25.79;82.18
42289;BME280;30230;47.520;19.016;2023-07-16T21:30:33;99011.41;;;25.81;82.09
42289;BME280;30230;47.520;19.016;2023-07-16T21:32:33;99012.22;;;25.82;81.48
42289;BME280;30230;47.520;19.016;2023-07-16T21:34:33;99006.31;;;25.75;81.65
42289;BME280;30230;47.520;19.016;2023-07-16T21:36:34;99010.69;;;25.76;83.24
42289;BME280;30230;47.520;19.016;2023-07-16T21:38:34;99009.66;;;25.71;83.51
42289;BME280;30230;47.520;19.016;2023-07-16T21:40:35;99010.78;;;25.70;83.62
42289;BME280;30230;47.520;19.016;2023-07-16T21:42:36;99010.78;;;25.70;83.35
42289;BME280;30230;47.520;19.016;2023-07-16T21:44:36;99009.16;;;25.69;82.98
42289;BME280;30230;47.520;19.016;2023-07-16T21:46:37;99011.38;;;25.67;83.17
42289;BME280;30230;47.520;19.016;2023-07-16T21:48:37;99014.69;;;25.69;83.01
42289;BME280;30230;47.520;19.016;2023-07-16T21:50:38;99014.47;;;25.66;83.60
42289;BME280;30230;47.520;19.016;2023-07-16T21:52:39;99014.16;;;25.67;83.37
42289;BME280;30230;47.520;19.016;2023-07-16T21:54:40;99006.00;;;25.49;83.30
42289;BME280;30230;47.520;19.016;2023-07-16T21:56:40;99019.41;;;25.55;84.00
42289;BME280;30230;47.520;19.016;2023-07-16T21:58:41;99015.41;;;25.48;84.69
42289;BME280;30230;47.520;19.016;2023-07-16T22:00:41;99014.19;;;25.40;85.36
42289;BME280;30230;47.520;19.016;2023-07-16T22:02:42;99018.19;;;25.34;88.20
42289;BME280;30230;47.520;19.016;2023-07-16T22:04:43;99016.13;;;25.26;86.37
42289;BME280;30230;47.520;19.016;2023-07-16T22:06:44;99017.94;;;25.16;86.99
42289;BME280;30230;47.520;19.016;2023-07-16T22:08:44;99020.81;;;25.11;87.18
42289;BME280;30230;47.520;19.016;2023-07-16T22:10:45;99019.81;;;25.07;87.59
42289;BME280;30230;47.520;19.016;2023-07-16T22:12:45;99023.06;;;25.09;87.73
42289;BME280;30230;47.520;19.016;2023-07-16T22:14:46;99025.22;;;25.12;88.71
42289;BME280;30230;47.520;19.016;2023-07-16T22:16:47;99033.31;;;25.09;88.19
42289;BME280;30230;47.520;19.016;2023-07-16T22:18:47;99030.28;;;25.05;88.39
42289;BME280;30230;47.520;19.016;2023-07-16T22:20:47;99028.97;;;25.03;88.14
42289;BME280;30230;47.520;19.016;2023-07-16T22:22:48;99032.03;;;25.01;88.63
42289;BME280;30230;47.520;19.016;2023-07-16T22:24:48;99036.22;;;24.99;87.61
42289;BME280;30230;47.520;19.016;2023-07-16T22:26:49;99029.34;;;24.96;88.74
42289;BME280;30230;47.520;19.016;2023-07-16T22:28:49;99036.13;;;25.04;88.65
42289;BME280;30230;47.520;19.016;2023-07-16T22:30:50;99031.41;;;25.04;88.61
42289;BME280;30230;47.520;19.016;2023-07-16T22:32:50;99040.94;;;24.98;90.24
42289;BME280;30230;47.520;19.016;2023-07-16T22:34:50;99044.19;;;25.00;89.31
42289;BME280;30230;47.520;19.016;2023-07-16T22:36:51;99045.34;;;24.99;89.43
42289;BME280;30230;47.520;19.016;2023-07-16T22:38:51;99049.53;;;24.97;89.74
42289;BME280;30230;47.520;19.016;2023-07-16T22:40:51;99055.44;;;24.90;89.53
42289;BME280;30230;47.520;19.016;2023-07-16T22:42:52;99050.72;;;24.90;89.67
42289;BME280;30230;47.520;19.016;2023-07-16T22:44:53;99049.63;;;24.91;89.90
42289;BME280;30230;47.520;19.016;2023-07-16T22:46:53;99049.19;;;24.84;90.61
42289;BME280;30230;47.520;19.016;2023-07-16T22:48:54;99042.75;;;24.89;90.04
42289;BME280;30230;47.520;19.016;2023-07-16T22:50:54;99043.34;;;24.86;89.94
42289;BME280;30230;47.520;19.016;2023-07-16T22:52:55;99039.94;;;24.75;90.94
42289;BME280;30230;47.520;19.016;2023-07-16T22:54:55;99047.50;;;24.69;91.46
42289;BME280;30230;47.520;19.016;2023-07-16T22:56:56;99047.38;;;24.61;91.75
42289;BME280;30230;47.520;19.016;2023-07-16T22:58:56;99046.66;;;24.55;91.87
42289;BME280;30230;47.520;19.016;2023-07-16T23:00:57;99044.47;;;24.52;92.01
42289;BME280;30230;47.520;19.016;2023-07-16T23:02:57;99048.13;;;24.48;92.30
42289;BME280;30230;47.520;19.016;2023-07-16T23:04:57;99045.88;;;24.50;92.22
42289;BME280;30230;47.520;19.016;2023-07-16T23:06:58;99044.78;;;24.51;92.66
42289;BME280;30230;47.520;19.016;2023-07-16T23:08:58;99053.34;;;24.49;92.48
42289;BME280;30230;47.520;19.016;2023-07-16T23:10:59;99045.06;;;24.49;92.23
42289;BME280;30230;47.520;19.016;2023-07-16T23:13:00;99040.91;;;24.52;91.66
42289;BME280;30230;47.520;19.016;2023-07-16T23:15:00;99042.03;;;24.51;91.90
42289;BME280;30230;47.520;19.016;2023-07-16T23:17:01;99043.44;;;24.48;91.64
42289;BME280;30230;47.520;19.016;2023-07-16T23:19:01;99048.44;;;24.46;92.32
42289;BME280;30230;47.520;19.016;2023-07-16T23:21:02;99039.84;;;24.48;92.10
42289;BME280;30230;47.520;19.016;2023-07-16T23:23:03;99042.09;;;24.46;91.70
42289;BME280;30230;47.520;19.016;2023-07-16T23:25:05;99041.56;;;24.43;91.79
42289;BME280;30230;47.520;19.016;2023-07-16T23:27:05;99046.19;;;24.48;91.76
42289;BME280;30230;47.520;19.016;2023-07-16T23:29:06;99042.47;;;24.39;92.27
42289;BME280;30230;47.520;19.016;2023-07-16T23:31:06;99040.66;;;24.29;92.91
42289;BME280;30230;47.520;19.016;2023-07-16T23:33:06;99034.94;;;24.26;94.15
42289;BME280;30230;47.520;19.016;2023-07-16T23:35:07;99035.31;;;24.19;93.70
42289;BME280;30230;47.520;19.016;2023-07-16T23:37:08;99039.03;;;24.09;94.05
42289;BME280;30230;47.520;19.016;2023-07-16T23:39:08;99042.69;;;24.05;94.96
42289;BME280;30230;47.520;19.016;2023-07-16T23:41:08;99042.44;;;24.01;94.87
42289;BME280;30230;47.520;19.016;2023-07-16T23:43:09;99030.91;;;23.99;95.82
42289;BME280;30230;47.520;19.016;2023-07-16T23:45:09;99030.91;;;23.99;95.33
42289;BME280;30230;47.520;19.016;2023-07-16T23:47:10;99028.59;;;24.06;94.84
42289;BME280;30230;47.520;19.016;2023-07-16T23:49:10;99026.47;;;23.98;96.71
42289;BME280;30230;47.520;19.016;2023-07-16T23:51:10;99019.94;;;23.94;96.82
42289;BME280;30230;47.520;19.016;2023-07-16T23:53:11;99026.84;;;23.91;96.78
42289;BME280;30230;47.520;19.016;2023-07-16T23:55:12;99022.22;;;23.87;96.18
42289;BME280;30230;47.520;19.016;2023-07-16T23:57:12;99019.25;;;23.83;95.74
42289;BME280;30230;47.520;19.016;2023-07-16T23:59:13;99020.91;;;23.84;95.94
